Terminal Aerodrome Forecast
Issued by NWS

Home | Current Version | Previous Version | Text Only | Print | Product List | Glossary On
Versions: 1 2 3 4 5 6 7 8 9 10 11 12 13 14 15 16 17 18 19 20 21 22 23 24
000
FTUS45 KGJT 220712 AAB
TAFTEX
TAF AMD
KTEX 220712Z 2207/2306 00000KT 2SM -SN SCT007 OVC014
     FM220800 21007KT 1 1/2SM -SN SCT005 BKN010 OVC025
     FM221100 21007KT 3SM -SHSN SCT015 OVC030
     FM221400 21008KT P6SM VCSH SCT015 OVC025
     FM222100 22017G32KT P6SM VCSH SCT020 BKN040
     FM230000 21016G30KT P6SM SCT025 BKN050
     FM230300 18012G27KT P6SM SCT030 BKN070=

USA.gov is the U.S. government's official web portal to all federal, state and local government web resources and services.